sensor_id;sensor_type;location;lat;lon;timestamp;pressure;altitude;pressure_sealevel;temperature;humidity
61710;BME280;73500;51.494;5.386;2024-02-04T00:01:18;102329.00;;;18.90;49.97
61710;BME280;73500;51.494;5.386;2024-02-04T00:03:43;102322.19;;;18.86;50.07
61710;BME280;73500;51.494;5.386;2024-02-04T00:06:09;102328.31;;;18.87;50.26
61710;BME280;73500;51.494;5.386;2024-02-04T00:08:34;102307.06;;;18.74;50.22
61710;BME280;73500;51.494;5.386;2024-02-04T00:10:59;102306.31;;;18.72;50.23
61710;BME280;73500;51.494;5.386;2024-02-04T00:13:25;102315.56;;;18.79;49.78
61710;BME280;73500;51.494;5.386;2024-02-04T00:15:50;102299.41;;;18.69;50.33
61710;BME280;73500;51.494;5.386;2024-02-04T00:18:17;102295.94;;;18.68;50.25
61710;BME280;73500;51.494;5.386;2024-02-04T00:20:43;102296.75;;;18.69;50.16
61710;BME280;73500;51.494;5.386;2024-02-04T00:23:08;102317.44;;;18.77;49.79
61710;BME280;73500;51.494;5.386;2024-02-04T00:25:33;102319.31;;;18.75;50.40
61710;BME280;73500;51.494;5.386;2024-02-04T00:27:58;102286.69;;;18.61;50.11
61710;BME280;73500;51.494;5.386;2024-02-04T00:30:24;102292.72;;;18.63;50.03
61710;BME280;73500;51.494;5.386;2024-02-04T00:32:49;102303.38;;;18.62;49.90
61710;BME280;73500;51.494;5.386;2024-02-04T00:35:14;102328.09;;;18.75;50.26
61710;BME280;73500;51.494;5.386;2024-02-04T00:37:40;102308.66;;;18.62;50.03
61710;BME280;73500;51.494;5.386;2024-02-04T00:40:05;102328.28;;;18.72;50.27
61710;BME280;73500;51.494;5.386;2024-02-04T00:42:31;102298.38;;;18.57;50.07
61710;BME280;73500;51.494;5.386;2024-02-04T00:44:56;102294.03;;;18.56;50.00
61710;BME280;73500;51.494;5.386;2024-02-04T00:47:21;102297.53;;;18.57;50.07
61710;BME280;73500;51.494;5.386;2024-02-04T00:49:47;102333.66;;;18.71;50.24
61710;BME280;73500;51.494;5.386;2024-02-04T00:52:12;102303.75;;;18.56;50.19
61710;BME280;73500;51.494;5.386;2024-02-04T00:54:37;102304.59;;;18.56;50.12
61710;BME280;73500;51.494;5.386;2024-02-04T00:57:03;102318.56;;;18.58;50.23
61710;BME280;73500;51.494;5.386;2024-02-04T00:59:28;102309.84;;;18.56;50.14
61710;BME280;73500;51.494;5.386;2024-02-04T01:01:53;102308.47;;;18.51;50.18
61710;BME280;73500;51.494;5.386;2024-02-04T01:04:20;102332.34;;;18.63;50.04
61710;BME280;73500;51.494;5.386;2024-02-04T01:06:48;102313.66;;;18.52;50.27
61710;BME280;73500;51.494;5.386;2024-02-04T01:09:13;102324.59;;;18.60;50.08
61710;BME280;73500;51.494;5.386;2024-02-04T01:11:38;102293.63;;;18.48;49.99
61710;BME280;73500;51.494;5.386;2024-02-04T01:14:04;102297.72;;;18.54;50.30
61710;BME280;73500;51.494;5.386;2024-02-04T01:16:29;102306.03;;;18.62;50.21
61710;BME280;73500;51.494;5.386;2024-02-04T01:18:54;102280.44;;;18.48;49.83
61710;BME280;73500;51.494;5.386;2024-02-04T01:21:19;102309.50;;;18.62;50.14
61710;BME280;73500;51.494;5.386;2024-02-04T01:23:45;102303.75;;;18.56;50.14
61710;BME280;73500;51.494;5.386;2024-02-04T01:26:10;102289.50;;;18.44;50.14
61710;BME280;73500;51.494;5.386;2024-02-04T01:28:35;102291.97;;;18.47;50.39
61710;BME280;73500;51.494;5.386;2024-02-04T01:31:00;102314.31;;;18.56;50.13
61710;BME280;73500;51.494;5.386;2024-02-04T01:33:26;102309.03;;;18.56;50.04
61710;BME280;73500;51.494;5.386;2024-02-04T01:35:51;102282.41;;;18.44;50.22
61710;BME280;73500;51.494;5.386;2024-02-04T01:38:17;102306.38;;;18.56;50.12
61710;BME280;73500;51.494;5.386;2024-02-04T01:40:43;102295.91;;;18.54;50.13
61710;BME280;73500;51.494;5.386;2024-02-04T01:43:08;102284.13;;;18.45;50.24
61710;BME280;73500;51.494;5.386;2024-02-04T01:45:33;102279.03;;;18.42;50.21
61710;BME280;73500;51.494;5.386;2024-02-04T01:47:59;102286.84;;;18.44;50.09
61710;BME280;73500;51.494;5.386;2024-02-04T01:50:24;102301.19;;;18.54;50.10
61710;BME280;73500;51.494;5.386;2024-02-04T01:52:50;102300.63;;;18.49;50.29
61710;BME280;73500;51.494;5.386;2024-02-04T01:55:17;102290.53;;;18.41;50.25
61710;BME280;73500;51.494;5.386;2024-02-04T01:57:44;102312.69;;;18.53;50.18
61710;BME280;73500;51.494;5.386;2024-02-04T02:00:09;102304.97;;;18.50;50.16
61710;BME280;73500;51.494;5.386;2024-02-04T02:02:39;102313.66;;;18.52;50.15
61710;BME280;73500;51.494;5.386;2024-02-04T02:05:05;102319.94;;;18.49;50.32
61710;BME280;73500;51.494;5.386;2024-02-04T02:07:30;102294.19;;;18.39;50.27
61710;BME280;73500;51.494;5.386;2024-02-04T02:09:56;102319.94;;;18.49;50.11
61710;BME280;73500;51.494;5.386;2024-02-04T02:12:26;102315.72;;;18.47;50.21
61710;BME280;73500;51.494;5.386;2024-02-04T02:14:59;102296.06;;;18.37;50.24
61710;BME280;73500;51.494;5.386;2024-02-04T02:17:31;102291.72;;;18.36;50.00
61710;BME280;73500;51.494;5.386;2024-02-04T02:22:38;102299.38;;;18.40;50.17
61710;BME280;73500;51.494;5.386;2024-02-04T02:25:05;102296.72;;;18.40;50.25
61710;BME280;73500;51.494;5.386;2024-02-04T02:27:32;102299.38;;;18.40;50.23
61710;BME280;73500;51.494;5.386;2024-02-04T02:29:58;102306.94;;;18.46;49.78
61710;BME280;73500;51.494;5.386;2024-02-04T02:32:23;102286.56;;;18.34;50.32
61710;BME280;73500;51.494;5.386;2024-02-04T02:34:49;102284.19;;;18.29;49.97
61710;BME280;73500;51.494;5.386;2024-02-04T02:42:28;102298.44;;;18.41;50.18
61710;BME280;73500;51.494;5.386;2024-02-04T02:44:55;102305.44;;;18.42;49.96
61710;BME280;73500;51.494;5.386;2024-02-04T02:47:22;102285.69;;;18.34;50.12
61710;BME280;73500;51.494;5.386;2024-02-04T02:49:51;102303.63;;;18.43;50.10
61710;BME280;73500;51.494;5.386;2024-02-04T02:52:17;102296.91;;;18.37;50.00
61710;BME280;73500;51.494;5.386;2024-02-04T02:54:42;102302.88;;;18.41;50.19
61710;BME280;73500;51.494;5.386;2024-02-04T02:57:07;102285.78;;;18.32;50.00
61710;BME280;73500;51.494;5.386;2024-02-04T02:59:33;102289.88;;;18.38;49.92
61710;BME280;73500;51.494;5.386;2024-02-04T03:01:59;102272.94;;;18.26;49.85
61710;BME280;73500;51.494;5.386;2024-02-04T03:04:24;102295.13;;;18.38;50.24
61710;BME280;73500;51.494;5.386;2024-02-04T03:06:49;102303.91;;;18.38;49.89
61710;BME280;73500;51.494;5.386;2024-02-04T03:09:15;102303.91;;;18.38;49.93
61710;BME280;73500;51.494;5.386;2024-02-04T03:11:40;102288.03;;;18.24;49.96
61710;BME280;73500;51.494;5.386;2024-02-04T03:14:06;102307.56;;;18.36;50.02
61710;BME280;73500;51.494;5.386;2024-02-04T03:16:31;102274.84;;;18.24;49.83
61710;BME280;73500;51.494;5.386;2024-02-04T03:18:57;102292.78;;;18.33;49.85
61710;BME280;73500;51.494;5.386;2024-02-04T03:21:22;102278.31;;;18.24;49.78
61710;BME280;73500;51.494;5.386;2024-02-04T03:23:47;102306.91;;;18.32;49.71
61710;BME280;73500;51.494;5.386;2024-02-04T03:26:16;102307.78;;;18.33;49.92
61710;BME280;73500;51.494;5.386;2024-02-04T03:28:44;102296.06;;;18.37;49.85
61710;BME280;73500;51.494;5.386;2024-02-04T03:31:09;102268.81;;;18.22;49.87
61710;BME280;73500;51.494;5.386;2024-02-04T03:33:34;102289.38;;;18.31;49.76
61710;BME280;73500;51.494;5.386;2024-02-04T03:35:59;102295.50;;;18.31;49.72
61710;BME280;73500;51.494;5.386;2024-02-04T03:38:25;102286.66;;;18.33;49.90
61710;BME280;73500;51.494;5.386;2024-02-04T03:40:51;102292.19;;;18.28;49.54
61710;BME280;73500;51.494;5.386;2024-02-04T03:43:16;102282.56;;;18.27;49.84
61710;BME280;73500;51.494;5.386;2024-02-04T03:45:42;102285.13;;;18.28;49.84
61710;BME280;73500;51.494;5.386;2024-02-04T03:48:07;102293.03;;;18.28;49.91
61710;BME280;73500;51.494;5.386;2024-02-04T03:50:32;102272.47;;;18.19;49.82
61710;BME280;73500;51.494;5.386;2024-02-04T03:52:57;102287.69;;;18.30;49.84
61710;BME280;73500;51.494;5.386;2024-02-04T03:55:23;102284.28;;;18.28;49.96
61710;BME280;73500;51.494;5.386;2024-02-04T03:57:48;102283.59;;;18.24;49.59
61710;BME280;73500;51.494;5.386;2024-02-04T04:00:14;102264.72;;;18.16;49.54
61710;BME280;73500;51.494;5.386;2024-02-04T04:02:40;102271.53;;;18.20;49.66
61710;BME280;73500;51.494;5.386;2024-02-04T04:05:06;102278.41;;;18.23;49.65
61710;BME280;73500;51.494;5.386;2024-02-04T04:07:31;102274.28;;;18.19;49.73
61710;BME280;73500;51.494;5.386;2024-02-04T04:09:57;102271.91;;;18.14;49.77
61710;BME280;73500;51.494;5.386;2024-02-04T04:12:22;102290.59;;;18.25;49.78
61710;BME280;73500;51.494;5.386;2024-02-04T04:14:47;102290.66;;;18.24;49.84
61710;BME280;73500;51.494;5.386;2024-02-04T04:17:13;102282.84;;;18.22;49.90
61710;BME280;73500;51.494;5.386;2024-02-04T04:19:39;102284.47;;;18.25;49.84
61710;BME280;73500;51.494;5.386;2024-02-04T04:22:04;102289.91;;;18.22;50.08
61710;BME280;73500;51.494;5.386;2024-02-04T04:24:30;102296.03;;;18.22;49.63
61710;BME280;73500;51.494;5.386;2024-02-04T04:26:55;102295.03;;;18.25;49.81
61710;BME280;73500;51.494;5.386;2024-02-04T04:29:20;102279.06;;;18.12;49.94
61710;BME280;73500;51.494;5.386;2024-02-04T04:31:46;102282.94;;;18.21;49.75
61710;BME280;73500;51.494;5.386;2024-02-04T04:34:11;102270.75;;;18.18;49.94
61710;BME280;73500;51.494;5.386;2024-02-04T04:36:36;102269.75;;;18.21;49.67
61710;BME280;73500;51.494;5.386;2024-02-04T04:39:02;102257.47;;;18.20;49.65
61710;BME280;73500;51.494;5.386;2024-02-04T04:41:27;102227.50;;;18.06;49.91
61710;BME280;73500;51.494;5.386;2024-02-04T04:43:53;102247.88;;;18.19;49.89
61710;BME280;73500;51.494;5.386;2024-02-04T04:46:18;102219.50;;;18.08;49.75
61710;BME280;73500;51.494;5.386;2024-02-04T04:48:43;102210.91;;;18.04;49.71
61710;BME280;73500;51.494;5.386;2024-02-04T04:51:11;102234.88;;;18.16;49.91
61710;BME280;73500;51.494;5.386;2024-02-04T04:53:37;102215.84;;;18.10;49.62
61710;BME280;73500;51.494;5.386;2024-02-04T04:56:02;102211.56;;;18.08;49.76
61710;BME280;73500;51.494;5.386;2024-02-04T04:58:27;102219.66;;;18.05;49.86
61710;BME280;73500;51.494;5.386;2024-02-04T05:00:53;102257.47;;;18.20;49.75
61710;BME280;73500;51.494;5.386;2024-02-04T05:03:18;102230.03;;;18.08;49.66
61710;BME280;73500;51.494;5.386;2024-02-04T05:05:44;102235.88;;;18.13;49.59
61710;BME280;73500;51.494;5.386;2024-02-04T05:08:11;102227.50;;;18.06;49.82
61710;BME280;73500;51.494;5.386;2024-02-04T05:10:37;102245.44;;;18.16;49.70
61710;BME280;73500;51.494;5.386;2024-02-04T05:13:02;102242.69;;;18.17;49.71
61710;BME280;73500;51.494;5.386;2024-02-04T05:15:27;102235.63;;;18.18;49.91
61710;BME280;73500;51.494;5.386;2024-02-04T05:17:54;102236.75;;;18.13;49.59
61710;BME280;73500;51.494;5.386;2024-02-04T05:20:20;102244.38;;;18.18;49.64
61710;BME280;73500;51.494;5.386;2024-02-04T05:22:45;102222.31;;;18.05;49.91
61710;BME280;73500;51.494;5.386;2024-02-04T05:25:10;102234.78;;;18.17;49.88
61710;BME280;73500;51.494;5.386;2024-02-04T05:27:36;102219.88;;;18.16;49.86
61710;BME280;73500;51.494;5.386;2024-02-04T05:30:02;102234.59;;;18.20;49.66
61710;BME280;73500;51.494;5.386;2024-02-04T05:32:27;102248.81;;;18.18;49.83
61710;BME280;73500;51.494;5.386;2024-02-04T05:34:52;102210.63;;;17.94;49.27
61710;BME280;73500;51.494;5.386;2024-02-04T05:37:17;102248.81;;;18.18;49.79
61710;BME280;73500;51.494;5.386;2024-02-04T05:39:43;102241.00;;;18.16;49.86
61710;BME280;73500;51.494;5.386;2024-02-04T05:42:08;102237.41;;;18.17;49.90
61710;BME280;73500;51.494;5.386;2024-02-04T05:44:33;102229.69;;;18.14;49.69
61710;BME280;73500;51.494;5.386;2024-02-04T05:46:59;102231.47;;;18.13;49.79
61710;BME280;73500;51.494;5.386;2024-02-04T05:49:24;102233.25;;;18.13;49.71
61710;BME280;73500;51.494;5.386;2024-02-04T05:51:49;102242.69;;;18.17;49.56
61710;BME280;73500;51.494;5.386;2024-02-04T05:54:15;102230.69;;;18.11;49.73
61710;BME280;73500;51.494;5.386;2024-02-04T05:56:40;102235.97;;;18.11;49.69
61710;BME280;73500;51.494;5.386;2024-02-04T05:59:06;102235.03;;;18.12;49.70
61710;BME280;73500;51.494;5.386;2024-02-04T06:01:31;102224.59;;;18.11;49.65
61710;BME280;73500;51.494;5.386;2024-02-04T06:03:58;102226.28;;;18.12;49.78
61710;BME280;73500;51.494;5.386;2024-02-04T06:06:23;102220.31;;;18.08;49.68
61710;BME280;73500;51.494;5.386;2024-02-04T06:08:48;102211.09;;;18.01;49.83
61710;BME280;73500;51.494;5.386;2024-02-04T06:11:14;102217.97;;;18.04;49.98
61710;BME280;73500;51.494;5.386;2024-02-04T06:13:40;102205.06;;;17.99;49.86
61710;BME280;73500;51.494;5.386;2024-02-04T06:16:06;102215.91;;;18.09;49.88
61710;BME280;73500;51.494;5.386;2024-02-04T06:18:31;102195.44;;;17.98;49.76
61710;BME280;73500;51.494;5.386;2024-02-04T06:20:57;102197.72;;;18.04;49.69
61710;BME280;73500;51.494;5.386;2024-02-04T06:23:22;102194.41;;;18.01;49.44
61710;BME280;73500;51.494;5.386;2024-02-04T06:25:47;102196.09;;;18.02;49.52
61710;BME280;73500;51.494;5.386;2024-02-04T06:28:13;102195.00;;;18.06;49.63
61710;BME280;73500;51.494;5.386;2024-02-04T06:30:38;102206.88;;;18.13;49.68
61710;BME280;73500;51.494;5.386;2024-02-04T06:33:03;102215.25;;;18.20;49.35
61710;BME280;73500;51.494;5.386;2024-02-04T06:35:29;102204.22;;;18.13;49.56
61710;BME280;73500;51.494;5.386;2024-02-04T06:37:54;102208.22;;;18.20;49.81
61710;BME280;73500;51.494;5.386;2024-02-04T06:40:20;102214.16;;;18.24;49.88
61710;BME280;73500;51.494;5.386;2024-02-04T06:42:45;102200.13;;;18.23;49.81
61710;BME280;73500;51.494;5.386;2024-02-04T06:45:10;102194.66;;;18.26;49.89
61710;BME280;73500;51.494;5.386;2024-02-04T06:47:36;102178.41;;;18.18;49.97
61710;BME280;73500;51.494;5.386;2024-02-04T06:50:01;102202.28;;;18.31;50.16
61710;BME280;73500;51.494;5.386;2024-02-04T06:52:30;102196.31;;;18.27;50.14
61710;BME280;73500;51.494;5.386;2024-02-04T06:54:55;102197.84;;;18.31;49.72
61710;BME280;73500;51.494;5.386;2024-02-04T06:57:21;102203.69;;;18.37;50.05
61710;BME280;73500;51.494;5.386;2024-02-04T06:59:46;102193.41;;;18.32;49.82
61710;BME280;73500;51.494;5.386;2024-02-04T07:02:11;102195.97;;;18.34;49.67
61710;BME280;73500;51.494;5.386;2024-02-04T07:04:37;102184.94;;;18.27;49.89
61710;BME280;73500;51.494;5.386;2024-02-04T07:07:02;102188.50;;;18.26;49.94
61710;BME280;73500;51.494;5.386;2024-02-04T07:09:28;102195.97;;;18.34;49.88
61710;BME280;73500;51.494;5.386;2024-02-04T07:11:53;102213.88;;;18.43;49.88
61710;BME280;73500;51.494;5.386;2024-02-04T07:14:18;102222.44;;;18.46;49.72
61710;BME280;73500;51.494;5.386;2024-02-04T07:16:44;102211.53;;;18.38;49.63
61710;BME280;73500;51.494;5.386;2024-02-04T07:19:09;102205.88;;;18.44;49.91
61710;BME280;73500;51.494;5.386;2024-02-04T07:21:34;102188.31;;;18.29;49.76
61710;BME280;73500;51.494;5.386;2024-02-04T07:23:59;102167.84;;;18.18;49.76
61710;BME280;73500;51.494;5.386;2024-02-04T07:26:25;102206.91;;;18.42;49.66
61710;BME280;73500;51.494;5.386;2024-02-04T07:28:50;102175.22;;;18.27;49.57
61710;BME280;73500;51.494;5.386;2024-02-04T07:31:15;102197.94;;;18.44;49.52
61710;BME280;73500;51.494;5.386;2024-02-04T07:33:40;102204.16;;;18.43;49.54
61710;BME280;73500;51.494;5.386;2024-02-04T07:36:06;102197.84;;;18.46;49.64
61710;BME280;73500;51.494;5.386;2024-02-04T07:38:31;102200.50;;;18.46;49.62
61710;BME280;73500;51.494;5.386;2024-02-04T07:40:57;102200.31;;;18.49;49.58
61710;BME280;73500;51.494;5.386;2024-02-04T07:43:24;102203.03;;;18.47;49.75
61710;BME280;73500;51.494;5.386;2024-02-04T07:45:50;102193.59;;;18.43;49.23
61710;BME280;73500;51.494;5.386;2024-02-04T07:48:16;102192.28;;;18.36;49.42
61710;BME280;73500;51.494;5.386;2024-02-04T07:50:41;102193.41;;;18.46;49.54
61710;BME280;73500;51.494;5.386;2024-02-04T07:53:07;102183.63;;;18.34;49.66
61710;BME280;73500;51.494;5.386;2024-02-04T07:55:32;102203.97;;;18.46;49.60
61710;BME280;73500;51.494;5.386;2024-02-04T07:57:57;102200.50;;;18.46;49.67
61710;BME280;73500;51.494;5.386;2024-02-04T08:00:23;102200.50;;;18.46;49.56
61710;BME280;73500;51.494;5.386;2024-02-04T08:02:48;102179.19;;;18.35;49.78
61710;BME280;73500;51.494;5.386;2024-02-04T08:05:13;102193.78;;;18.40;49.85
61710;BME280;73500;51.494;5.386;2024-02-04T08:07:39;102187.47;;;18.43;49.75
61710;BME280;73500;51.494;5.386;2024-02-04T08:10:05;102184.38;;;18.36;49.79
61710;BME280;73500;51.494;5.386;2024-02-04T08:12:31;102171.38;;;18.33;49.95
61710;BME280;73500;51.494;5.386;2024-02-04T08:14:56;102174.84;;;18.34;49.68
61710;BME280;73500;51.494;5.386;2024-02-04T08:17:21;102173.44;;;18.42;49.80
61710;BME280;73500;51.494;5.386;2024-02-04T08:19:46;102177.66;;;18.45;49.88
61710;BME280;73500;51.494;5.386;2024-02-04T08:22:12;102159.47;;;18.40;50.06
61710;BME280;73500;51.494;5.386;2024-02-04T08:24:37;102167.97;;;18.45;50.04
61710;BME280;73500;51.494;5.386;2024-02-04T08:27:02;102176.66;;;18.47;49.96
61710;BME280;73500;51.494;5.386;2024-02-04T08:29:28;102166.28;;;18.44;50.16
61710;BME280;73500;51.494;5.386;2024-02-04T08:31:54;102171.00;;;18.39;50.17
61710;BME280;73500;51.494;5.386;2024-02-04T08:34:19;102174.84;;;18.48;50.24
61710;BME280;73500;51.494;5.386;2024-02-04T08:36:51;102171.56;;;18.44;50.51
61710;BME280;73500;51.494;5.386;2024-02-04T08:39:16;102163.16;;;18.38;50.56
61710;BME280;73500;51.494;5.386;2024-02-04T08:41:41;102183.72;;;18.47;50.42
61710;BME280;73500;51.494;5.386;2024-02-04T08:44:07;102209.94;;;18.50;50.52
61710;BME280;73500;51.494;5.386;2024-02-04T08:46:32;102194.28;;;18.47;50.43
61710;BME280;73500;51.494;5.386;2024-02-04T08:48:57;102187.66;;;18.40;50.39
61710;BME280;73500;51.494;5.386;2024-02-04T08:51:23;102203.03;;;18.47;50.72
61710;BME280;73500;51.494;5.386;2024-02-04T08:53:48;102203.78;;;18.49;50.59
61710;BME280;73500;51.494;5.386;2024-02-04T08:56:13;102198.59;;;18.48;50.67
61710;BME280;73500;51.494;5.386;2024-02-04T08:58:39;102182.47;;;18.38;50.67
61710;BME280;73500;51.494;5.386;2024-02-04T09:01:04;102192.84;;;18.41;50.79
61710;BME280;73500;51.494;5.386;2024-02-04T09:03:30;102206.53;;;18.48;51.05
61710;BME280;73500;51.494;5.386;2024-02-04T09:05:56;102213.31;;;18.52;50.95
61710;BME280;73500;51.494;5.386;2024-02-04T09:08:21;102203.31;;;18.43;50.84
61710;BME280;73500;51.494;5.386;2024-02-04T09:10:47;102216.16;;;18.49;50.99
61710;BME280;73500;51.494;5.386;2024-02-04T09:13:12;102212.44;;;18.52;50.86
61710;BME280;73500;51.494;5.386;2024-02-04T09:15:37;102216.72;;;18.54;50.94
61710;BME280;73500;51.494;5.386;2024-02-04T09:18:03;102208.13;;;18.51;50.99
61710;BME280;73500;51.494;5.386;2024-02-04T09:20:28;102205.78;;;18.46;50.87
61710;BME280;73500;51.494;5.386;2024-02-04T09:22:53;102190.03;;;18.44;51.12
61710;BME280;73500;51.494;5.386;2024-02-04T09:25:19;102184.94;;;18.41;51.21
61710;BME280;73500;51.494;5.386;2024-02-04T09:27:44;102205.41;;;18.52;51.13
61710;BME280;73500;51.494;5.386;2024-02-04T09:30:10;102184.66;;;18.46;50.61
61710;BME280;73500;51.494;5.386;2024-02-04T09:32:36;102189.75;;;18.49;50.88
61710;BME280;73500;51.494;5.386;2024-02-04T09:35:02;102193.13;;;18.51;50.65
61710;BME280;73500;51.494;5.386;2024-02-04T09:37:27;102194.75;;;18.54;50.76
61710;BME280;73500;51.494;5.386;2024-02-04T09:39:52;102191.34;;;18.52;50.71
61710;BME280;73500;51.494;5.386;2024-02-04T09:42:21;102191.47;;;18.50;50.73
61710;BME280;73500;51.494;5.386;2024-02-04T09:44:48;102195.69;;;18.53;50.65
61710;BME280;73500;51.494;5.386;2024-02-04T09:47:14;102193.03;;;18.53;50.70
61710;BME280;73500;51.494;5.386;2024-02-04T09:49:40;102180.13;;;18.48;50.58
61710;BME280;73500;51.494;5.386;2024-02-04T09:52:09;102182.47;;;18.53;50.79
61710;BME280;73500;51.494;5.386;2024-02-04T09:54:59;102176.75;;;18.46;50.83
61710;BME280;73500;51.494;5.386;2024-02-04T09:57:24;102192.38;;;18.49;50.55
61710;BME280;73500;51.494;5.386;2024-02-04T09:59:49;102168.25;;;18.41;50.80
61710;BME280;73500;51.494;5.386;2024-02-04T10:02:15;102194.75;;;18.54;50.80
61710;BME280;73500;51.494;5.386;2024-02-04T10:04:40;102167.81;;;18.34;50.79
61710;BME280;73500;51.494;5.386;2024-02-04T10:07:05;102179.75;;;18.40;50.73
61710;BME280;73500;51.494;5.386;2024-02-04T10:09:31;102181.38;;;18.42;50.84
61710;BME280;73500;51.494;5.386;2024-02-04T10:11:57;102212.34;;;18.53;50.99
61710;BME280;73500;51.494;5.386;2024-02-04T10:14:22;102214.16;;;18.53;50.98
61710;BME280;73500;51.494;5.386;2024-02-04T10:16:47;102213.31;;;18.52;50.67
61710;BME280;73500;51.494;5.386;2024-02-04T10:19:13;102179.84;;;18.38;50.80
61710;BME280;73500;51.494;5.386;2024-02-04T10:21:38;102205.59;;;18.49;50.65
61710;BME280;73500;51.494;5.386;2024-02-04T10:24:06;102199.75;;;18.44;51.04
61710;BME280;73500;51.494;5.386;2024-02-04T10:26:31;102190.69;;;18.48;50.82
61710;BME280;73500;51.494;5.386;2024-02-04T10:28:59;102189.09;;;18.45;50.75
61710;BME280;73500;51.494;5.386;2024-02-04T10:31:25;102177.31;;;18.37;50.84
61710;BME280;73500;51.494;5.386;2024-02-04T10:33:51;102180.88;;;18.36;50.87
61710;BME280;73500;51.494;5.386;2024-02-04T10:36:17;102199.66;;;18.45;50.79
61710;BME280;73500;51.494;5.386;2024-02-04T10:38:42;102196.94;;;18.47;50.53
61710;BME280;73500;51.494;5.386;2024-02-04T10:41:14;102200.41;;;18.47;50.86
61710;BME280;73500;51.494;5.386;2024-02-04T10:43:42;102196.94;;;18.47;50.77
61710;BME280;73500;51.494;5.386;2024-02-04T10:46:19;102193.97;;;18.37;50.75
61710;BME280;73500;51.494;5.386;2024-02-04T10:48:51;102194.94;;;18.36;50.75
61710;BME280;73500;51.494;5.386;2024-02-04T10:51:17;102186.38;;;18.33;50.76
61710;BME280;73500;51.494;5.386;2024-02-04T10:53:44;102204.94;;;18.45;50.50
61710;BME280;73500;51.494;5.386;2024-02-04T10:56:22;102200.22;;;18.51;50.77
61710;BME280;73500;51.494;5.386;2024-02-04T10:58:48;102182.22;;;18.43;50.68
61710;BME280;73500;51.494;5.386;2024-02-04T11:01:14;102202.03;;;18.50;50.66
61710;BME280;73500;51.494;5.386;2024-02-04T11:03:40;102194.94;;;18.51;50.47
61710;BME280;73500;51.494;5.386;2024-02-04T11:06:07;102176.28;;;18.39;50.59
61710;BME280;73500;51.494;5.386;2024-02-04T11:08:33;102167.50;;;18.39;50.45
61710;BME280;73500;51.494;5.386;2024-02-04T11:10:59;102164.19;;;18.35;50.79
61710;BME280;73500;51.494;5.386;2024-02-04T11:13:24;102182.84;;;18.46;50.61
61710;BME280;73500;51.494;5.386;2024-02-04T11:15:53;102186.28;;;18.48;50.51
61710;BME280;73500;51.494;5.386;2024-02-04T11:18:42;102189.75;;;18.49;50.59
61710;BME280;73500;51.494;5.386;2024-02-04T11:21:50;102189.75;;;18.49;50.79
61710;BME280;73500;51.494;5.386;2024-02-04T11:24:18;102185.41;;;18.48;50.69
61710;BME280;73500;51.494;5.386;2024-02-04T11:26:46;102172.38;;;18.45;50.53
61710;BME280;73500;51.494;5.386;2024-02-04T11:29:12;102143.09;;;18.35;50.49
61710;BME280;73500;51.494;5.386;2024-02-04T11:31:39;102150.06;;;18.36;50.66
61710;BME280;73500;51.494;5.386;2024-02-04T11:34:08;102149.88;;;18.39;50.75
61710;BME280;73500;51.494;5.386;2024-02-04T11:36:42;102144.97;;;18.33;50.83
61710;BME280;73500;51.494;5.386;2024-02-04T11:39:20;102152.63;;;18.38;50.92
61710;BME280;73500;51.494;5.386;2024-02-04T11:41:50;102164.28;;;18.48;50.81
61710;BME280;73500;51.494;5.386;2024-02-04T11:44:23;102153.81;;;18.46;50.84
61710;BME280;73500;51.494;5.386;2024-02-04T11:46:50;102152.06;;;18.47;50.68
61710;BME280;73500;51.494;5.386;2024-02-04T11:49:16;102142.81;;;18.40;51.02
61710;BME280;73500;51.494;5.386;2024-02-04T11:51:50;102136.78;;;18.38;50.96
61710;BME280;73500;51.494;5.386;2024-02-04T11:54:16;102152.69;;;18.51;51.54
61710;BME280;73500;51.494;5.386;2024-02-04T11:56:45;102156.09;;;18.53;51.62
61710;BME280;73500;51.494;5.386;2024-02-04T11:59:12;102125.94;;;18.42;51.33
61710;BME280;73500;51.494;5.386;2024-02-04T12:01:39;102128.38;;;18.45;51.20
61710;BME280;73500;51.494;5.386;2024-02-04T12:04:12;102119.78;;;18.42;51.26
61710;BME280;73500;51.494;5.386;2024-02-04T12:06:40;102124.22;;;18.41;51.24
61710;BME280;73500;51.494;5.386;2024-02-04T12:09:06;102116.97;;;18.45;51.05
61710;BME280;73500;51.494;5.386;2024-02-04T12:11:33;102131.38;;;18.54;51.08
61710;BME280;73500;51.494;5.386;2024-02-04T12:13:59;102124.78;;;18.46;51.04
61710;BME280;73500;51.494;5.386;2024-02-04T12:16:26;102111.88;;;18.42;51.26
61710;BME280;73500;51.494;5.386;2024-02-04T12:18:51;102128.09;;;18.50;51.16
61710;BME280;73500;51.494;5.386;2024-02-04T12:21:17;102128.84;;;18.52;51.37
61710;BME280;73500;51.494;5.386;2024-02-04T12:23:42;102107.56;;;18.41;51.13
61710;BME280;73500;51.494;5.386;2024-02-04T12:26:07;102127.13;;;18.51;51.38
61710;BME280;73500;51.494;5.386;2024-02-04T12:28:33;102105.84;;;18.40;51.25
61710;BME280;73500;51.494;5.386;2024-02-04T12:30:58;102120.56;;;18.44;51.36
61710;BME280;73500;51.494;5.386;2024-02-04T12:33:24;102115.38;;;18.42;51.26
61710;BME280;73500;51.494;5.386;2024-02-04T12:35:53;102106.69;;;18.40;51.15
61710;BME280;73500;51.494;5.386;2024-02-04T12:38:21;102096.31;;;18.37;51.29
61710;BME280;73500;51.494;5.386;2024-02-04T12:40:46;102116.38;;;18.54;51.36
61710;BME280;73500;51.494;5.386;2024-02-04T12:43:12;102110.38;;;18.52;51.22
61710;BME280;73500;51.494;5.386;2024-02-04T12:45:37;102113.94;;;18.51;51.44
61710;BME280;73500;51.494;5.386;2024-02-04T12:48:03;102100.84;;;18.49;51.16
61710;BME280;73500;51.494;5.386;2024-02-04T12:50:29;102100.53;;;18.54;51.34
61710;BME280;73500;51.494;5.386;2024-02-04T12:53:05;102080.19;;;18.42;51.34